sensor_id;sensor_type;location;lat;lon;timestamp;pressure;altitude;pressure_sealevel;temperature;humidity
49835;BME280;35729;52.090;13.162;2023-05-28T00:01:03;101594.63;;;12.89;49.72
49835;BME280;35729;52.090;13.162;2023-05-28T00:03:31;101597.31;;;12.86;49.97
49835;BME280;35729;52.090;13.162;2023-05-28T00:06:01;101586.84;;;12.81;49.94
49835;BME280;35729;52.090;13.162;2023-05-28T00:08:29;101584.25;;;12.80;50.08
49835;BME280;35729;52.090;13.162;2023-05-28T00:10:58;101581.72;;;12.75;50.42
49835;BME280;35729;52.090;13.162;2023-05-28T00:13:28;101572.13;;;12.69;50.64
49835;BME280;35729;52.090;13.162;2023-05-28T00:15:59;101579.19;;;12.67;50.91
49835;BME280;35729;52.090;13.162;2023-05-28T00:18:28;101581.06;;;12.61;51.36
49835;BME280;35729;52.090;13.162;2023-05-28T00:20:56;101576.78;;;12.53;51.53
49835;BME280;35729;52.090;13.162;2023-05-28T00:23:26;101576.91;;;12.47;51.68
49835;BME280;35729;52.090;13.162;2023-05-28T00:25:54;101573.50;;;12.41;51.88
49835;BME280;35729;52.090;13.162;2023-05-28T00:28:22;101579.78;;;12.33;51.98
49835;BME280;35729;52.090;13.162;2023-05-28T00:30:51;101580.72;;;12.28;52.27
49835;BME280;35729;52.090;13.162;2023-05-28T00:33:22;101579.06;;;12.20;52.52
49835;BME280;35729;52.090;13.162;2023-05-28T00:35:51;101574.81;;;12.13;52.73
49835;BME280;35729;52.090;13.162;2023-05-28T00:38:21;101574.94;;;12.04;52.94
49835;BME280;35729;52.090;13.162;2023-05-28T00:40:50;101574.16;;;11.97;53.12
49835;BME280;35729;52.090;13.162;2023-05-28T00:43:19;101581.25;;;11.90;53.21
49835;BME280;35729;52.090;13.162;2023-05-28T00:45:49;101575.19;;;11.85;53.41
49835;BME280;35729;52.090;13.162;2023-05-28T00:48:18;101568.25;;;11.78;53.47
49835;BME280;35729;52.090;13.162;2023-05-28T00:50:50;101570.06;;;11.73;53.71
49835;BME280;35729;52.090;13.162;2023-05-28T00:53:18;101566.66;;;11.68;53.70
49835;BME280;35729;52.090;13.162;2023-05-28T00:55:47;101571.94;;;11.65;53.96
49835;BME280;35729;52.090;13.162;2023-05-28T00:58:16;101570.22;;;11.61;54.13
49835;BME280;35729;52.090;13.162;2023-05-28T01:00:46;101565.91;;;11.56;54.08
49835;BME280;35729;52.090;13.162;2023-05-28T01:03:14;101570.34;;;11.53;54.35
49835;BME280;35729;52.090;13.162;2023-05-28T01:05:43;101572.13;;;11.49;54.43
49835;BME280;35729;52.090;13.162;2023-05-28T01:08:15;101570.41;;;11.47;54.67
49835;BME280;35729;52.090;13.162;2023-05-28T01:10:44;101565.16;;;11.44;54.73
49835;BME280;35729;52.090;13.162;2023-05-28T01:13:13;101567.00;;;11.40;54.79
49835;BME280;35729;52.090;13.162;2023-05-28T01:15:41;101560.91;;;11.36;54.99
49835;BME280;35729;52.090;13.162;2023-05-28T01:18:11;101564.44;;;11.34;54.94
49835;BME280;35729;52.090;13.162;2023-05-28T01:20:39;101551.31;;;11.31;55.09
49835;BME280;35729;52.090;13.162;2023-05-28T01:23:11;101559.22;;;11.29;55.29
49835;BME280;35729;52.090;13.162;2023-05-28T01:25:49;101555.78;;;11.24;55.61
49835;BME280;35729;52.090;13.162;2023-05-28T01:28:19;101552.31;;;11.20;55.76
49835;BME280;35729;52.090;13.162;2023-05-28T01:30:48;101549.75;;;11.14;55.80
49835;BME280;35729;52.090;13.162;2023-05-28T01:33:18;101548.97;;;11.04;55.87
49835;BME280;35729;52.090;13.162;2023-05-28T01:35:50;101550.81;;;10.98;56.06
49835;BME280;35729;52.090;13.162;2023-05-28T01:38:20;101556.16;;;10.88;56.06
49835;BME280;35729;52.090;13.162;2023-05-28T01:40:53;101555.34;;;10.80;56.09
49835;BME280;35729;52.090;13.162;2023-05-28T01:43:23;101547.53;;;10.74;56.21
49835;BME280;35729;52.090;13.162;2023-05-28T01:45:52;101549.34;;;10.69;56.30
49835;BME280;35729;52.090;13.162;2023-05-28T01:48:22;101552.03;;;10.64;56.28
49835;BME280;35729;52.090;13.162;2023-05-28T01:50:52;101553.81;;;10.61;56.29
49835;BME280;35729;52.090;13.162;2023-05-28T01:53:21;101547.72;;;10.55;56.30
49835;BME280;35729;52.090;13.162;2023-05-28T01:55:52;101545.13;;;10.51;56.52
49835;BME280;35729;52.090;13.162;2023-05-28T01:58:21;101554.78;;;10.47;56.62
49835;BME280;35729;52.090;13.162;2023-05-28T02:01:01;101555.69;;;10.45;56.92
49835;BME280;35729;52.090;13.162;2023-05-28T02:03:31;101552.22;;;10.41;57.01
49835;BME280;35729;52.090;13.162;2023-05-28T02:05:59;101550.50;;;10.37;57.18
49835;BME280;35729;52.090;13.162;2023-05-28T02:08:27;101553.13;;;10.32;57.45
49835;BME280;35729;52.090;13.162;2023-05-28T02:10:59;101547.03;;;10.27;57.58
49835;BME280;35729;52.090;13.162;2023-05-28T02:13:27;101548.81;;;10.22;57.65
49835;BME280;35729;52.090;13.162;2023-05-28T02:15:57;101544.50;;;10.16;57.80
49835;BME280;35729;52.090;13.162;2023-05-28T02:18:25;101543.66;;;10.09;58.11
49835;BME280;35729;52.090;13.162;2023-05-28T02:20:54;101542.81;;;10.06;58.22
49835;BME280;35729;52.090;13.162;2023-05-28T02:23:22;101545.47;;;10.01;58.40
49835;BME280;35729;52.090;13.162;2023-05-28T02:25:50;101541.16;;;9.97;58.64
49835;BME280;35729;52.090;13.162;2023-05-28T02:28:21;101549.00;;;9.94;58.81
49835;BME280;35729;52.090;13.162;2023-05-28T02:30:50;101548.16;;;9.90;59.07
49835;BME280;35729;52.090;13.162;2023-05-28T02:33:19;101542.09;;;9.84;59.28
49835;BME280;35729;52.090;13.162;2023-05-28T02:35:47;101546.50;;;9.77;59.62
49835;BME280;35729;52.090;13.162;2023-05-28T02:38:16;101543.03;;;9.72;59.68
49835;BME280;35729;52.090;13.162;2023-05-28T02:40:44;101544.78;;;9.67;59.80
49835;BME280;35729;52.090;13.162;2023-05-28T02:43:13;101541.31;;;9.61;59.99
49835;BME280;35729;52.090;13.162;2023-05-28T02:45:44;101544.84;;;9.57;60.18
49835;BME280;35729;52.090;13.162;2023-05-28T02:48:12;101540.50;;;9.50;60.21
49835;BME280;35729;52.090;13.162;2023-05-28T02:50:41;101542.28;;;9.45;60.49
49835;BME280;35729;52.090;13.162;2023-05-28T02:53:09;101549.28;;;9.40;60.51
49835;BME280;35729;52.090;13.162;2023-05-28T02:55:44;101550.19;;;9.36;60.70
49835;BME280;35729;52.090;13.162;2023-05-28T02:58:12;101543.22;;;9.32;60.83
49835;BME280;35729;52.090;13.162;2023-05-28T03:00:43;101547.56;;;9.29;60.87
49835;BME280;35729;52.090;13.162;2023-05-28T03:03:12;101550.22;;;9.26;61.07
49835;BME280;35729;52.090;13.162;2023-05-28T03:05:40;101544.09;;;9.24;61.21
49835;BME280;35729;52.090;13.162;2023-05-28T03:08:09;101544.97;;;9.23;61.31
49835;BME280;35729;52.090;13.162;2023-05-28T03:10:37;101547.59;;;9.22;61.37
49835;BME280;35729;52.090;13.162;2023-05-28T03:13:06;101546.75;;;9.18;61.70
49835;BME280;35729;52.090;13.162;2023-05-28T03:15:34;101546.75;;;9.15;61.91
49835;BME280;35729;52.090;13.162;2023-05-28T03:18:06;101549.38;;;9.10;62.54
49835;BME280;35729;52.090;13.162;2023-05-28T03:20:34;101552.03;;;9.07;62.20
49835;BME280;35729;52.090;13.162;2023-05-28T03:23:03;101544.16;;;9.06;62.34
49835;BME280;35729;52.090;13.162;2023-05-28T03:25:31;101545.03;;;9.02;62.33
49835;BME280;35729;52.090;13.162;2023-05-28T03:28:06;101545.91;;;8.99;62.43
49835;BME280;35729;52.090;13.162;2023-05-28T03:30:35;101547.66;;;8.97;62.38
49835;BME280;35729;52.090;13.162;2023-05-28T03:33:06;101545.06;;;8.95;62.56
49835;BME280;35729;52.090;13.162;2023-05-28T03:35:35;101545.06;;;8.94;62.53
49835;BME280;35729;52.090;13.162;2023-05-28T03:38:03;101545.91;;;8.94;62.72
49835;BME280;35729;52.090;13.162;2023-05-28T03:40:32;101546.81;;;8.93;62.58
49835;BME280;35729;52.090;13.162;2023-05-28T03:43:00;101544.19;;;8.92;62.71
49835;BME280;35729;52.090;13.162;2023-05-28T03:45:30;101549.41;;;8.92;62.89
49835;BME280;35729;52.090;13.162;2023-05-28T03:48:01;101543.31;;;8.91;62.80
49835;BME280;35729;52.090;13.162;2023-05-28T03:50:32;101545.94;;;8.93;63.03
49835;BME280;35729;52.090;13.162;2023-05-28T03:53:01;101547.69;;;8.94;63.19
49835;BME280;35729;52.090;13.162;2023-05-28T03:55:32;101543.31;;;8.94;63.06
49835;BME280;35729;52.090;13.162;2023-05-28T03:58:01;101543.31;;;8.94;63.15
49835;BME280;35729;52.090;13.162;2023-05-28T04:00:30;101539.81;;;8.95;63.26
49835;BME280;35729;52.090;13.162;2023-05-28T04:02:58;101539.81;;;8.97;63.43
49835;BME280;35729;52.090;13.162;2023-05-28T04:05:28;101543.31;;;8.98;63.65
49835;BME280;35729;52.090;13.162;2023-05-28T04:08:01;101537.19;;;9.00;63.79
49835;BME280;35729;52.090;13.162;2023-05-28T04:10:30;101541.56;;;9.01;63.79
49835;BME280;35729;52.090;13.162;2023-05-28T04:12:58;101543.28;;;9.02;63.76
49835;BME280;35729;52.090;13.162;2023-05-28T04:15:27;101544.16;;;9.04;63.81
49835;BME280;35729;52.090;13.162;2023-05-28T04:17:55;101551.16;;;9.05;63.83
49835;BME280;35729;52.090;13.162;2023-05-28T04:20:24;101534.56;;;9.08;63.64
49835;BME280;35729;52.090;13.162;2023-05-28T04:22:53;101531.06;;;9.10;63.75
49835;BME280;35729;52.090;13.162;2023-05-28T04:25:24;101533.66;;;9.13;63.94
49835;BME280;35729;52.090;13.162;2023-05-28T04:27:52;101534.53;;;9.19;63.91
49835;BME280;35729;52.090;13.162;2023-05-28T04:30:22;101531.00;;;9.24;63.77
49835;BME280;35729;52.090;13.162;2023-05-28T04:32:51;101531.00;;;9.29;63.67
49835;BME280;35729;52.090;13.162;2023-05-28T04:35:19;101528.34;;;9.34;63.84
49835;BME280;35729;52.090;13.162;2023-05-28T04:37:48;101529.19;;;9.39;63.87
49835;BME280;35729;52.090;13.162;2023-05-28T04:40:17;101539.66;;;9.45;64.12
49835;BME280;35729;52.090;13.162;2023-05-28T04:42:49;101531.78;;;9.50;64.02
49835;BME280;35729;52.090;13.162;2023-05-28T04:45:19;101532.63;;;9.56;64.04
49835;BME280;35729;52.090;13.162;2023-05-28T04:47:48;101536.09;;;9.61;63.95
49835;BME280;35729;52.090;13.162;2023-05-28T04:50:17;101540.44;;;9.67;63.89
49835;BME280;35729;52.090;13.162;2023-05-28T04:52:47;101556.13;;;9.73;64.00
49835;BME280;35729;52.090;13.162;2023-05-28T04:55:16;101550.84;;;9.80;64.01
49835;BME280;35729;52.090;13.162;2023-05-28T04:57:44;101549.94;;;9.85;64.05
49835;BME280;35729;52.090;13.162;2023-05-28T05:00:16;101542.91;;;9.90;63.88
49835;BME280;35729;52.090;13.162;2023-05-28T05:02:45;101544.66;;;9.96;63.75
49835;BME280;35729;52.090;13.162;2023-05-28T05:05:13;101542.00;;;10.02;63.77
49835;BME280;35729;52.090;13.162;2023-05-28T05:07:42;101539.31;;;10.08;63.67
49835;BME280;35729;52.090;13.162;2023-05-28T05:10:10;101539.28;;;10.13;63.57
49835;BME280;35729;52.090;13.162;2023-05-28T05:12:39;101531.38;;;10.19;63.69
49835;BME280;35729;52.090;13.162;2023-05-28T05:15:08;101533.94;;;10.25;63.72
49835;BME280;35729;52.090;13.162;2023-05-28T05:17:39;101535.63;;;10.31;63.51
49835;BME280;35729;52.090;13.162;2023-05-28T05:20:09;101543.47;;;10.37;63.48
49835;BME280;35729;52.090;13.162;2023-05-28T05:22:37;101532.09;;;10.43;63.47
49835;BME280;35729;52.090;13.162;2023-05-28T05:25:06;101534.63;;;10.51;63.48
49835;BME280;35729;52.090;13.162;2023-05-28T05:27:35;101532.84;;;10.56;63.40
49835;BME280;35729;52.090;13.162;2023-05-28T05:30:05;101543.28;;;10.62;63.29
49835;BME280;35729;52.090;13.162;2023-05-28T05:32:34;101538.84;;;10.69;63.21
49835;BME280;35729;52.090;13.162;2023-05-28T05:35:06;101540.56;;;10.74;63.37
49835;BME280;35729;52.090;13.162;2023-05-28T05:37:34;101532.63;;;10.81;63.23
49835;BME280;35729;52.090;13.162;2023-05-28T05:40:04;101538.66;;;10.87;63.11
49835;BME280;35729;52.090;13.162;2023-05-28T05:42:34;101538.59;;;10.94;63.09
49835;BME280;35729;52.090;13.162;2023-05-28T05:45:04;101539.44;;;10.99;63.04
49835;BME280;35729;52.090;13.162;2023-05-28T05:47:35;101539.34;;;11.06;62.88
49835;BME280;35729;52.090;13.162;2023-05-28T05:50:13;101539.28;;;11.13;62.93
49835;BME280;35729;52.090;13.162;2023-05-28T05:52:41;101533.97;;;11.19;62.70
49835;BME280;35729;52.090;13.162;2023-05-28T05:55:10;101537.38;;;11.25;62.66
49835;BME280;35729;52.090;13.162;2023-05-28T05:57:38;101542.53;;;11.33;62.42
49835;BME280;35729;52.090;13.162;2023-05-28T06:00:08;101532.84;;;11.40;62.28
49835;BME280;35729;52.090;13.162;2023-05-28T06:02:38;101539.72;;;11.47;62.14
49835;BME280;35729;52.090;13.162;2023-05-28T06:05:08;101543.16;;;11.55;62.16
49835;BME280;35729;52.090;13.162;2023-05-28T06:07:39;101535.16;;;11.63;62.03
49835;BME280;35729;52.090;13.162;2023-05-28T06:10:08;101532.41;;;11.71;61.87
49835;BME280;35729;52.090;13.162;2023-05-28T06:12:36;101531.41;;;11.80;61.74
49835;BME280;35729;52.090;13.162;2023-05-28T06:15:05;101524.31;;;11.88;61.44
49835;BME280;35729;52.090;13.162;2023-05-28T06:17:34;101518.94;;;11.97;61.32
49835;BME280;35729;52.090;13.162;2023-05-28T06:20:03;101526.69;;;12.05;61.10
49835;BME280;35729;52.090;13.162;2023-05-28T06:22:32;101531.81;;;12.16;61.01
49835;BME280;35729;52.090;13.162;2023-05-28T06:25:16;101525.50;;;12.26;60.83
49835;BME280;35729;52.090;13.162;2023-05-28T06:27:51;101520.06;;;12.35;60.37
49835;BME280;35729;52.090;13.162;2023-05-28T06:30:19;101520.75;;;12.47;60.28
49835;BME280;35729;52.090;13.162;2023-05-28T06:32:48;101522.34;;;12.57;59.84
49835;BME280;35729;52.090;13.162;2023-05-28T06:35:16;101516.88;;;12.68;59.82
49835;BME280;35729;52.090;13.162;2023-05-28T06:37:45;101521.97;;;12.77;59.63
49835;BME280;35729;52.090;13.162;2023-05-28T06:40:16;101520.91;;;12.89;59.46
49835;BME280;35729;52.090;13.162;2023-05-28T06:42:45;101520.66;;;13.00;58.89
49835;BME280;35729;52.090;13.162;2023-05-28T06:45:13;101523.97;;;13.11;58.37
49835;BME280;35729;52.090;13.162;2023-05-28T06:47:43;101521.97;;;13.23;58.11
49835;BME280;35729;52.090;13.162;2023-05-28T06:50:11;101524.38;;;13.35;57.64
49835;BME280;35729;52.090;13.162;2023-05-28T06:52:40;101522.41;;;13.46;57.48
49835;BME280;35729;52.090;13.162;2023-05-28T06:55:09;101518.63;;;13.58;57.18
49835;BME280;35729;52.090;13.162;2023-05-28T06:57:40;101519.25;;;13.71;56.99
49835;BME280;35729;52.090;13.162;2023-05-28T07:00:10;101522.47;;;13.84;56.29
49835;BME280;35729;52.090;13.162;2023-05-28T07:02:40;101513.34;;;13.97;55.95
49835;BME280;35729;52.090;13.162;2023-05-28T07:05:08;101513.94;;;14.10;55.73
49835;BME280;35729;52.090;13.162;2023-05-28T07:07:38;101513.63;;;14.23;55.00
49835;BME280;35729;52.090;13.162;2023-05-28T07:10:07;101509.81;;;14.34;54.53
49835;BME280;35729;52.090;13.162;2023-05-28T07:12:35;101513.91;;;14.46;54.01
49835;BME280;35729;52.090;13.162;2023-05-28T07:15:08;101517.09;;;14.61;53.26
49835;BME280;35729;52.090;13.162;2023-05-28T07:17:36;101516.75;;;14.73;53.23
49835;BME280;35729;52.090;13.162;2023-05-28T07:20:06;101514.69;;;14.85;52.55
49835;BME280;35729;52.090;13.162;2023-05-28T07:22:35;101512.63;;;14.96;52.07
49835;BME280;35729;52.090;13.162;2023-05-28T07:25:04;101510.50;;;15.09;51.52
49835;BME280;35729;52.090;13.162;2023-05-28T07:27:33;101510.16;;;15.21;50.30
49835;BME280;35729;52.090;13.162;2023-05-28T07:30:02;101511.53;;;15.35;49.59
49835;BME280;35729;52.090;13.162;2023-05-28T07:32:33;101510.34;;;15.45;48.79
49835;BME280;35729;52.090;13.162;2023-05-28T07:35:01;101508.19;;;15.58;48.03
49835;BME280;35729;52.090;13.162;2023-05-28T07:37:30;101513.13;;;15.70;47.69
49835;BME280;35729;52.090;13.162;2023-05-28T07:39:59;101506.59;;;15.82;47.22
49835;BME280;35729;52.090;13.162;2023-05-28T07:42:27;101509.75;;;15.93;46.92
49835;BME280;35729;52.090;13.162;2023-05-28T07:44:56;101498.91;;;16.03;46.12
49835;BME280;35729;52.090;13.162;2023-05-28T07:47:24;101498.53;;;16.13;45.29
49835;BME280;35729;52.090;13.162;2023-05-28T07:49:55;101502.63;;;16.24;43.92
49835;BME280;35729;52.090;13.162;2023-05-28T07:52:23;101494.38;;;16.33;44.27
49835;BME280;35729;52.090;13.162;2023-05-28T07:54:54;101501.06;;;16.43;43.82
49835;BME280;35729;52.090;13.162;2023-05-28T07:57:24;101491.09;;;16.52;43.30
49835;BME280;35729;52.090;13.162;2023-05-28T07:59:53;101494.28;;;16.61;43.49
49835;BME280;35729;52.090;13.162;2023-05-28T08:02:21;101489.50;;;16.71;43.20
49835;BME280;35729;52.090;13.162;2023-05-28T08:04:50;101491.81;;;16.81;42.44
49835;BME280;35729;52.090;13.162;2023-05-28T08:07:21;101485.34;;;16.91;41.87
49835;BME280;35729;52.090;13.162;2023-05-28T08:09:50;101493.78;;;17.01;41.39
49835;BME280;35729;52.090;13.162;2023-05-28T08:12:18;101489.09;;;17.09;40.69
49835;BME280;35729;52.090;13.162;2023-05-28T08:14:47;101495.81;;;17.18;40.40
49835;BME280;35729;52.090;13.162;2023-05-28T08:17:16;101484.00;;;17.26;39.87
49835;BME280;35729;52.090;13.162;2023-05-28T08:19:44;101489.94;;;17.33;39.59
49835;BME280;35729;52.090;13.162;2023-05-28T08:22:13;101484.41;;;17.39;39.16
49835;BME280;35729;52.090;13.162;2023-05-28T08:24:44;101485.00;;;17.46;38.90
49835;BME280;35729;52.090;13.162;2023-05-28T08:27:12;101490.16;;;17.51;38.71
49835;BME280;35729;52.090;13.162;2023-05-28T08:29:41;101480.09;;;17.59;38.44
49835;BME280;35729;52.090;13.162;2023-05-28T08:32:09;101488.63;;;17.67;38.12
49835;BME280;35729;52.090;13.162;2023-05-28T08:34:38;101480.28;;;17.77;37.63
49835;BME280;35729;52.090;13.162;2023-05-28T08:37:06;101482.69;;;17.83;37.58
49835;BME280;35729;52.090;13.162;2023-05-28T08:39:35;101484.19;;;17.90;37.44
49835;BME280;35729;52.090;13.162;2023-05-28T08:42:06;101467.16;;;17.96;37.27
49835;BME280;35729;52.090;13.162;2023-05-28T08:44:35;101473.88;;;18.04;36.96
49835;BME280;35729;52.090;13.162;2023-05-28T08:47:04;101469.13;;;18.13;36.70
49835;BME280;35729;52.090;13.162;2023-05-28T08:49:38;101478.50;;;18.21;36.39
49835;BME280;35729;52.090;13.162;2023-05-28T08:52:09;101470.34;;;18.26;36.93
49835;BME280;35729;52.090;13.162;2023-05-28T08:54:39;101469.03;;;18.36;36.29
49835;BME280;35729;52.090;13.162;2023-05-28T08:57:12;101473.94;;;18.46;35.42
49835;BME280;35729;52.090;13.162;2023-05-28T08:59:40;101472.75;;;18.53;35.56
49835;BME280;35729;52.090;13.162;2023-05-28T09:02:09;101469.75;;;18.61;35.42
49835;BME280;35729;52.090;13.162;2023-05-28T09:04:38;101472.97;;;18.67;34.96
49835;BME280;35729;52.090;13.162;2023-05-28T09:07:11;101465.66;;;18.72;33.95
49835;BME280;35729;52.090;13.162;2023-05-28T09:09:39;101464.63;;;18.77;34.53
49835;BME280;35729;52.090;13.162;2023-05-28T09:12:12;101459.97;;;18.82;33.42
49835;BME280;35729;52.090;13.162;2023-05-28T09:14:42;101461.47;;;18.87;33.61
49835;BME280;35729;52.090;13.162;2023-05-28T09:17:10;101460.38;;;18.93;33.48
49835;BME280;35729;52.090;13.162;2023-05-28T09:19:39;101459.22;;;18.99;33.43
49835;BME280;35729;52.090;13.162;2023-05-28T09:22:07;101462.59;;;19.02;33.40
49835;BME280;35729;52.090;13.162;2023-05-28T09:24:41;101461.59;;;19.05;33.12
49835;BME280;35729;52.090;13.162;2023-05-28T09:27:13;101462.22;;;19.10;33.48
49835;BME280;35729;52.090;13.162;2023-05-28T09:29:44;101447.94;;;19.13;32.91
49835;BME280;35729;52.090;13.162;2023-05-28T09:32:17;101445.16;;;19.16;32.36
49835;BME280;35729;52.090;13.162;2023-05-28T09:34:48;101441.53;;;19.17;32.65
49835;BME280;35729;52.090;13.162;2023-05-28T09:37:17;101434.19;;;19.22;33.17
49835;BME280;35729;52.090;13.162;2023-05-28T09:39:46;101433.06;;;19.28;33.01
49835;BME280;35729;52.090;13.162;2023-05-28T09:42:19;101430.31;;;19.29;32.61
49835;BME280;35729;52.090;13.162;2023-05-28T09:44:48;101427.56;;;19.31;32.97
49835;BME280;35729;52.090;13.162;2023-05-28T09:47:18;101424.69;;;19.35;32.88
49835;BME280;35729;52.090;13.162;2023-05-28T09:49:47;101420.03;;;19.41;33.08
49835;BME280;35729;52.090;13.162;2023-05-28T09:52:18;101427.72;;;19.47;32.66
49835;BME280;35729;52.090;13.162;2023-05-28T09:54:49;101425.84;;;19.49;32.46
49835;BME280;35729;52.090;13.162;2023-05-28T09:57:23;101423.09;;;19.50;32.66
49835;BME280;35729;52.090;13.162;2023-05-28T09:59:53;101421.16;;;19.54;32.38
49835;BME280;35729;52.090;13.162;2023-05-28T10:02:28;101418.25;;;19.59;32.83
49835;BME280;35729;52.090;13.162;2023-05-28T10:05:02;101411.78;;;19.64;32.43
49835;BME280;35729;52.090;13.162;2023-05-28T10:07:35;101412.91;;;19.78;31.92
49835;BME280;35729;52.090;13.162;2023-05-28T10:10:08;101410.81;;;19.84;32.13
49835;BME280;35729;52.090;13.162;2023-05-28T10:12:41;101413.31;;;19.88;31.88
49835;BME280;35729;52.090;13.162;2023-05-28T10:15:11;101409.59;;;19.92;31.92
49835;BME280;35729;52.090;13.162;2023-05-28T10:17:40;101412.78;;;19.98;30.79
49835;BME280;35729;52.090;13.162;2023-05-28T10:20:10;101401.84;;;20.05;30.50
49835;BME280;35729;52.090;13.162;2023-05-28T10:22:40;101403.22;;;20.12;30.27
49835;BME280;35729;52.090;13.162;2023-05-28T10:25:09;101394.91;;;20.18;29.91
49835;BME280;35729;52.090;13.162;2023-05-28T10:27:45;101394.59;;;20.24;29.86
49835;BME280;35729;52.090;13.162;2023-05-28T10:30:32;101388.94;;;20.30;29.39
49835;BME280;35729;52.090;13.162;2023-05-28T10:33:04;101385.97;;;20.37;29.63
49835;BME280;35729;52.090;13.162;2023-05-28T10:35:34;101387.38;;;20.44;29.69
49835;BME280;35729;52.090;13.162;2023-05-28T10:38:04;101394.84;;;20.53;29.41
49835;BME280;35729;52.090;13.162;2023-05-28T10:40:34;101382.00;;;20.61;29.13
49835;BME280;35729;52.090;13.162;2023-05-28T10:43:12;101373.59;;;20.69;29.11
49835;BME280;35729;52.090;13.162;2023-05-28T10:45:55;101383.66;;;20.80;29.08
49835;BME280;35729;52.090;13.162;2023-05-28T10:48:24;101389.38;;;20.90;28.51
49835;BME280;35729;52.090;13.162;2023-05-28T10:50:56;101386.13;;;21.01;28.45
49835;BME280;35729;52.090;13.162;2023-05-28T10:53:26;101378.44;;;21.10;28.17
49835;BME280;35729;52.090;13.162;2023-05-28T10:55:55;101382.50;;;21.18;28.24
49835;BME280;35729;52.090;13.162;2023-05-28T10:58:27;101385.66;;;21.24;28.23
49835;BME280;35729;52.090;13.162;2023-05-28T11:01:18;101378.09;;;21.32;27.99
49835;BME280;35729;52.090;13.162;2023-05-28T11:03:52;101377.75;;;21.39;27.53
49835;BME280;35729;52.090;13.162;2023-05-28T11:06:21;101379.13;;;21.46;28.00
49835;BME280;35729;52.090;13.162;2023-05-28T11:08:52;101376.09;;;21.52;28.10
49835;BME280;35729;52.090;13.162;2023-05-28T11:11:21;101376.63;;;21.59;28.11
49835;BME280;35729;52.090;13.162;2023-05-28T11:13:54;101368.19;;;21.67;28.12
49835;BME280;35729;52.090;13.162;2023-05-28T11:16:22;101372.81;;;21.79;28.16
49835;BME280;35729;52.090;13.162;2023-05-28T11:19:01;101376.53;;;21.91;27.90
49835;BME280;35729;52.090;13.162;2023-05-28T11:21:29;101374.97;;;22.03;28.04
49835;BME280;35729;52.090;13.162;2023-05-28T11:24:00;101380.41;;;22.16;27.50
49835;BME280;35729;52.090;13.162;2023-05-28T11:26:29;101385.97;;;22.27;27.82
49835;BME280;35729;52.090;13.162;2023-05-28T11:29:01;101373.09;;;22.34;27.13
49835;BME280;35729;52.090;13.162;2023-05-28T11:31:37;101380.75;;;22.40;26.67
49835;BME280;35729;52.090;13.162;2023-05-28T11:34:06;101373.97;;;22.49;27.43
49835;BME280;35729;52.090;13.162;2023-05-28T11:36:38;101374.34;;;22.57;26.91
49835;BME280;35729;52.090;13.162;2023-05-28T11:39:07;101369.41;;;22.65;26.54
49835;BME280;35729;52.090;13.162;2023-05-28T11:41:35;101371.19;;;22.79;26.45
49835;BME280;35729;52.090;13.162;2023-05-28T11:44:22;101361.78;;;23.01;26.65
49835;BME280;35729;52.090;13.162;2023-05-28T11:46:53;101352.72;;;23.18;25.74
49835;BME280;35729;52.090;13.162;2023-05-28T11:49:22;101348.91;;;23.35;25.60
49835;BME280;35729;52.090;13.162;2023-05-28T11:51:51;101350.38;;;23.53;25.66
49835;BME280;35729;52.090;13.162;2023-05-28T11:54:20;101340.88;;;23.75;25.68
49835;BME280;35729;52.090;13.162;2023-05-28T11:56:48;101342.66;;;24.02;25.52
49835;BME280;35729;52.090;13.162;2023-05-28T11:59:19;101343.50;;;24.28;24.99
49835;BME280;35729;52.090;13.162;2023-05-28T12:01:54;101329.22;;;24.53;24.73
49835;BME280;35729;52.090;13.162;2023-05-28T12:04:23;101336.59;;;24.76;24.30
49835;BME280;35729;52.090;13.162;2023-05-28T12:06:53;101329.03;;;24.94;24.13
49835;BME280;35729;52.090;13.162;2023-05-28T12:09:28;101334.75;;;25.13;23.97
49835;BME280;35729;52.090;13.162;2023-05-28T12:12:02;101325.19;;;25.33;23.70
49835;BME280;35729;52.090;13.162;2023-05-28T12:14:31;101324.06;;;25.49;23.89
49835;BME280;35729;52.090;13.162;2023-05-28T12:17:09;101325.69;;;25.63;23.45
49835;BME280;35729;52.090;13.162;2023-05-28T12:19:45;101317.94;;;25.82;22.73
49835;BME280;35729;52.090;13.162;2023-05-28T12:22:15;101313.34;;;25.96;23.21
49835;BME280;35729;52.090;13.162;2023-05-28T12:24:48;101313.63;;;26.15;22.96
49835;BME280;35729;52.090;13.162;2023-05-28T12:27:19;101310.44;;;26.33;22.50
49835;BME280;35729;52.090;13.162;2023-05-28T12:29:47;101307.16;;;26.41;22.71
49835;BME280;35729;52.090;13.162;2023-05-28T12:32:18;101309.69;;;26.54;22.14
49835;BME280;35729;52.090;13.162;2023-05-28T12:34:47;101303.59;;;26.63;22.08
49835;BME280;35729;52.090;13.162;2023-05-28T12:37:16;101308.97;;;26.74;22.20
49835;BME280;35729;52.090;13.162;2023-05-28T12:39:45;101300.88;;;26.86;22.06
49835;BME280;35729;52.090;13.162;2023-05-28T12:42:13;101305.00;;;27.01;21.87
49835;BME280;35729;52.090;13.162;2023-05-28T12:44:42;101302.97;;;27.14;21.76
49835;BME280;35729;52.090;13.162;2023-05-28T12:47:11;101298.28;;;27.28;21.95
49835;BME280;35729;52.090;13.162;2023-05-28T12:49:42;101295.31;;;27.42;21.19
49835;BME280;35729;52.090;13.162;2023-05-28T12:52:11;101307.69;;;27.45;21.62
49835;BME280;35729;52.090;13.162;2023-05-28T12:54:40;101308.97;;;27.51;21.21
49835;BME280;35729;52.090;13.162;2023-05-28T12:57:09;101297.53;;;27.58;21.28